Terminal Aerodrome Forecast
Issued by NWS

Home | Current Version | Previous Version | Graphics & Text | Print | Product List | Glossary On
Versions: 1 2 3 4 5 6 7 8 9 10 11 12 13 14 15 16
000
FTUS43 KABR 072300
TAFATY
TAF
KATY 072331Z 0800/0824 33019G24KT P6SM BKN040
     FM080400 32010KT P6SM SKC
     FM081500 32016G22KT P6SM SCT030=

USA.gov is the U.S. government's official web portal to all federal, state and local government web resources and services.